createdAt,value
2023-05-05T00:00:34.664Z,41.47
2023-05-05T00:01:34.681Z,41.47
2023-05-05T00:02:34.787Z,41.45
2023-05-05T00:03:34.840Z,41.47
2023-05-05T00:04:34.800Z,41.44
2023-05-05T00:05:34.813Z,41.46
2023-05-05T00:06:34.861Z,41.45
2023-05-05T00:07:34.905Z,41.45
2023-05-05T00:08:34.936Z,41.47
2023-05-05T00:09:34.976Z,41.46
2023-05-05T00:10:35.011Z,41.47
2023-05-05T00:11:35.073Z,41.44
2023-05-05T00:12:35.081Z,41.45
2023-05-05T00:13:35.119Z,41.44
2023-05-05T00:14:35.163Z,41.44
2023-05-05T00:15:35.186Z,41.41
2023-05-05T00:16:35.377Z,41.44
2023-05-05T00:17:35.271Z,41.46
2023-05-05T00:18:35.314Z,41.43
2023-05-05T00:19:35.362Z,41.43
2023-05-05T00:20:35.380Z,41.43
2023-05-05T00:21:35.403Z,41.40
2023-05-05T00:22:35.441Z,41.42
2023-05-05T00:23:35.469Z,41.41
2023-05-05T00:24:35.507Z,41.40
2023-05-05T00:25:35.547Z,41.40
2023-05-05T00:26:35.581Z,41.43
2023-05-05T00:27:35.618Z,41.39
2023-05-05T00:28:35.656Z,41.40
2023-05-05T00:29:35.690Z,41.41
2023-05-05T00:30:35.732Z,41.40
2023-05-05T00:31:35.858Z,41.39
2023-05-05T00:32:35.850Z,41.38
2023-05-05T00:33:35.825Z,41.40
2023-05-05T00:34:35.828Z,41.40
2023-05-05T00:35:35.871Z,41.34
2023-05-05T00:36:35.910Z,41.39
2023-05-05T00:37:35.935Z,41.37
2023-05-05T00:38:35.954Z,41.38
2023-05-05T00:39:35.989Z,41.38
2023-05-05T00:40:35.983Z,41.35
2023-05-05T00:41:36.007Z,41.36
2023-05-05T00:42:36.027Z,41.39
2023-05-05T00:43:36.029Z,41.37
2023-05-05T00:44:36.059Z,41.36
2023-05-05T00:45:36.098Z,41.33
2023-05-05T00:46:36.188Z,41.37
2023-05-05T00:47:36.205Z,41.38
2023-05-05T00:48:36.197Z,41.39
2023-05-05T00:49:36.248Z,41.37
2023-05-05T00:50:36.242Z,41.35
2023-05-05T00:51:36.283Z,41.39
2023-05-05T00:52:36.323Z,41.34
2023-05-05T00:53:36.327Z,41.34
2023-05-05T00:54:36.396Z,41.34
2023-05-05T00:55:36.388Z,41.33
2023-05-05T00:56:36.422Z,41.33
2023-05-05T00:57:36.433Z,41.35
2023-05-05T00:58:36.462Z,41.33
2023-05-05T00:59:36.466Z,41.33
2023-05-05T01:00:36.503Z,41.34
2023-05-05T01:01:36.562Z,41.32
2023-05-05T01:02:36.620Z,41.31
2023-05-05T01:03:36.618Z,41.32
2023-05-05T01:04:36.609Z,41.30
2023-05-05T01:05:36.635Z,41.31
2023-05-05T01:06:36.658Z,41.33
2023-05-05T01:07:36.692Z,41.32
2023-05-05T01:08:36.709Z,41.29
2023-05-05T01:09:36.728Z,41.28
2023-05-05T01:10:36.768Z,41.33
2023-05-05T01:11:36.794Z,41.30
2023-05-05T01:12:36.847Z,41.30
2023-05-05T01:13:36.858Z,41.31
2023-05-05T01:14:36.875Z,41.29
2023-05-05T01:15:36.895Z,41.30
2023-05-05T01:16:36.962Z,41.29
2023-05-05T01:17:37.006Z,41.27
2023-05-05T01:18:37.017Z,41.24
2023-05-05T01:19:37.053Z,41.27
2023-05-05T01:20:37.088Z,41.29
2023-05-05T01:21:37.131Z,41.31
2023-05-05T01:22:37.158Z,41.27
2023-05-05T01:23:37.175Z,41.28
2023-05-05T01:24:37.217Z,41.28
2023-05-05T01:25:37.244Z,41.29
2023-05-05T01:26:37.274Z,41.29
2023-05-05T01:27:37.317Z,41.27
2023-05-05T01:28:37.351Z,41.25
2023-05-05T01:29:37.383Z,41.26
2023-05-05T01:30:37.412Z,41.26
2023-05-05T01:31:37.505Z,41.25
2023-05-05T01:32:37.528Z,41.27
2023-05-05T01:33:37.539Z,41.25
2023-05-05T01:34:37.574Z,41.25
2023-05-05T01:35:37.628Z,41.24
2023-05-05T01:36:37.659Z,41.25
2023-05-05T01:37:37.718Z,41.26
2023-05-05T01:38:37.757Z,41.24
2023-05-05T01:39:37.797Z,41.23
2023-05-05T01:40:37.844Z,41.26
2023-05-05T01:41:37.879Z,41.26
2023-05-05T01:42:37.929Z,41.25
2023-05-05T01:43:37.952Z,41.26
2023-05-05T01:44:38.004Z,41.23
2023-05-05T01:45:38.058Z,41.25
2023-05-05T01:46:38.076Z,41.25
2023-05-05T01:47:38.145Z,41.23
2023-05-05T01:48:38.921Z,41.23
2023-05-05T01:49:38.192Z,41.24
2023-05-05T01:50:38.228Z,41.24
2023-05-05T01:51:38.287Z,41.23
2023-05-05T01:52:38.304Z,41.25
2023-05-05T01:53:38.358Z,41.23
2023-05-05T01:54:38.391Z,41.23
2023-05-05T01:55:38.419Z,41.23
2023-05-05T01:56:38.436Z,41.21
2023-05-05T01:57:38.480Z,41.20
2023-05-05T01:58:38.493Z,41.21
2023-05-05T01:59:38.543Z,41.20
2023-05-05T02:00:38.580Z,41.21
2023-05-05T02:01:38.688Z,41.19
2023-05-05T02:02:38.750Z,41.21
2023-05-05T02:03:38.821Z,41.23
2023-05-05T02:04:38.716Z,41.19
2023-05-05T02:05:38.750Z,41.19
2023-05-05T02:06:38.814Z,41.18
2023-05-05T02:07:38.852Z,41.22
2023-05-05T02:08:38.888Z,41.19
2023-05-05T02:09:38.930Z,41.21
2023-05-05T02:10:38.953Z,41.22
2023-05-05T02:11:39.003Z,41.17
2023-05-05T02:12:39.052Z,41.18
2023-05-05T02:13:39.234Z,41.18
2023-05-05T02:14:39.092Z,41.17
2023-05-05T02:15:39.210Z,41.17
2023-05-05T02:16:39.172Z,41.17
2023-05-05T02:17:39.273Z,41.21
2023-05-05T02:18:39.250Z,41.19
2023-05-05T02:19:39.291Z,41.15
2023-05-05T02:20:39.325Z,41.15
2023-05-05T02:21:39.344Z,41.16
2023-05-05T02:22:39.394Z,41.17
2023-05-05T02:23:39.429Z,41.15
2023-05-05T02:24:39.453Z,41.12
2023-05-05T02:25:39.486Z,41.15
2023-05-05T02:26:39.522Z,41.16
2023-05-05T02:27:39.565Z,41.12
2023-05-05T02:28:39.614Z,41.14
2023-05-05T02:29:39.630Z,41.12
2023-05-05T02:30:39.681Z,41.14
2023-05-05T02:31:39.785Z,41.13
2023-05-05T02:32:39.801Z,41.14
2023-05-05T02:33:39.800Z,41.11
2023-05-05T02:34:39.821Z,41.13
2023-05-05T02:35:39.849Z,41.12
2023-05-05T02:36:39.882Z,41.13
2023-05-05T02:37:39.898Z,41.13
2023-05-05T02:38:39.938Z,41.13
2023-05-05T02:39:39.982Z,41.10
2023-05-05T02:40:40.023Z,41.10
2023-05-05T02:41:40.089Z,41.12
2023-05-05T02:42:40.161Z,41.15
2023-05-05T02:43:40.163Z,41.16
2023-05-05T02:44:40.210Z,41.13
2023-05-05T02:45:40.243Z,41.12
2023-05-05T02:46:40.346Z,41.11
2023-05-05T02:47:40.384Z,41.10
2023-05-05T02:48:40.370Z,41.09
2023-05-05T02:49:40.401Z,41.08
2023-05-05T02:50:40.462Z,41.08
2023-05-05T02:51:40.503Z,41.08
2023-05-05T02:52:40.548Z,41.11
2023-05-05T02:53:40.589Z,41.08
2023-05-05T02:54:40.629Z,41.07
2023-05-05T02:55:40.653Z,41.08
2023-05-05T02:56:40.698Z,41.07
2023-05-05T02:57:40.724Z,41.06
2023-05-05T02:58:40.754Z,41.04
2023-05-05T02:59:40.788Z,41.06
2023-05-05T03:00:40.806Z,41.07
2023-05-05T03:01:40.842Z,41.06
2023-05-05T03:02:40.903Z,41.06
2023-05-05T03:03:41.074Z,41.07
2023-05-05T03:04:40.962Z,41.07
2023-05-05T03:05:40.993Z,41.07
2023-05-05T03:06:41.043Z,41.07
2023-05-05T03:07:41.088Z,41.07
2023-05-05T03:08:41.107Z,41.05
2023-05-05T03:09:41.144Z,41.10
2023-05-05T03:10:41.179Z,41.07
2023-05-05T03:11:41.222Z,41.07
2023-05-05T03:12:41.326Z,41.07
2023-05-05T03:13:41.312Z,41.03
2023-05-05T03:14:41.340Z,41.06
2023-05-05T03:15:41.379Z,41.05
2023-05-05T03:16:41.555Z,41.06
2023-05-05T03:17:41.489Z,41.05
2023-05-05T03:18:41.464Z,41.05
2023-05-05T03:19:41.494Z,41.07
2023-05-05T03:20:41.520Z,41.09
2023-05-05T03:21:41.564Z,41.03
2023-05-05T03:22:41.593Z,41.02
2023-05-05T03:23:41.609Z,41.01
2023-05-05T03:24:41.658Z,41.01
2023-05-05T03:25:41.705Z,41.03
2023-05-05T03:26:41.743Z,41.03
2023-05-05T03:27:41.787Z,41.01
2023-05-05T03:28:41.811Z,41.05
2023-05-05T03:29:41.835Z,41.01
2023-05-05T03:30:41.864Z,41.00
2023-05-05T03:31:41.930Z,41.03
2023-05-05T03:32:41.949Z,41.00
2023-05-05T03:33:41.973Z,41.01
2023-05-05T03:34:42.016Z,41.00
2023-05-05T03:35:42.120Z,40.99
2023-05-05T03:36:42.088Z,40.98
2023-05-05T03:37:42.138Z,40.98
2023-05-05T03:38:42.165Z,41.00
2023-05-05T03:39:42.217Z,40.97
2023-05-05T03:40:44.548Z,40.98
2023-05-05T03:41:42.250Z,40.99
2023-05-05T03:42:42.225Z,40.97
2023-05-05T03:43:42.271Z,40.99
2023-05-05T03:44:42.196Z,40.97
2023-05-05T03:45:42.224Z,40.94
2023-05-05T03:46:42.175Z,40.94
2023-05-05T03:47:42.195Z,40.96
2023-05-05T03:48:42.138Z,40.94
2023-05-05T03:49:42.123Z,40.95
2023-05-05T03:50:42.120Z,40.94
2023-05-05T03:51:42.095Z,40.99
2023-05-05T03:52:42.087Z,40.93
2023-05-05T03:53:42.065Z,40.95
2023-05-05T03:54:42.063Z,40.94
2023-05-05T03:55:42.042Z,40.94
2023-05-05T03:56:42.020Z,40.95
2023-05-05T03:57:42.011Z,40.92
2023-05-05T03:58:41.982Z,40.93
2023-05-05T03:59:41.981Z,40.90
2023-05-05T04:00:41.965Z,40.93
2023-05-05T04:01:41.954Z,40.90
2023-05-05T04:02:42.051Z,40.89
2023-05-05T04:03:42.014Z,40.89
2023-05-05T04:04:41.909Z,40.91
2023-05-05T04:05:41.894Z,40.89
2023-05-05T04:06:41.888Z,40.90
2023-05-05T04:07:41.863Z,40.88
2023-05-05T04:08:41.841Z,40.90
2023-05-05T04:09:41.820Z,40.92
2023-05-05T04:10:41.805Z,40.90
2023-05-05T04:11:41.800Z,40.90
2023-05-05T04:12:41.835Z,40.89
2023-05-05T04:13:41.767Z,40.89
2023-05-05T04:14:41.763Z,40.85
2023-05-05T04:15:41.748Z,40.86
2023-05-05T04:16:41.708Z,40.87
2023-05-05T04:17:41.769Z,40.86
2023-05-05T04:18:41.674Z,40.86
2023-05-05T04:19:41.679Z,40.85
2023-05-05T04:20:41.716Z,40.86
2023-05-05T04:21:41.758Z,40.87
2023-05-05T04:22:42.054Z,40.88
2023-05-05T04:23:41.868Z,40.88
2023-05-05T04:24:41.915Z,40.85
2023-05-05T04:25:41.962Z,40.88
2023-05-05T04:26:42.008Z,40.87
2023-05-05T04:27:42.044Z,40.87
2023-05-05T04:28:42.093Z,40.86
2023-05-05T04:29:42.130Z,40.83
2023-05-05T04:30:42.201Z,40.86
2023-05-05T04:31:42.348Z,40.88
2023-05-05T04:32:42.287Z,40.88
2023-05-05T04:33:42.324Z,40.87
2023-05-05T04:34:42.329Z,40.88
2023-05-05T04:35:42.372Z,40.86
2023-05-05T04:36:42.437Z,40.87
2023-05-05T04:37:42.469Z,40.86
2023-05-05T04:38:42.529Z,40.86
2023-05-05T04:39:42.560Z,40.87
2023-05-05T04:40:42.609Z,40.85
2023-05-05T04:41:42.634Z,40.83
2023-05-05T04:42:42.678Z,40.83
2023-05-05T04:43:42.735Z,40.83
2023-05-05T04:44:42.770Z,40.86
2023-05-05T04:45:42.818Z,40.82
2023-05-05T04:46:42.887Z,40.84
2023-05-05T04:47:42.930Z,40.84
2023-05-05T04:48:42.954Z,40.82
2023-05-05T04:49:43.011Z,40.83
2023-05-05T04:50:43.042Z,40.81
2023-05-05T04:51:43.082Z,40.82
2023-05-05T04:52:43.169Z,40.80
2023-05-05T04:53:43.170Z,40.79
2023-05-05T04:54:43.224Z,40.79
2023-05-05T04:55:43.258Z,40.82
2023-05-05T04:56:43.303Z,40.81
2023-05-05T04:57:43.356Z,40.82
2023-05-05T04:58:43.406Z,40.82
2023-05-05T04:59:43.436Z,40.83
2023-05-05T05:00:43.489Z,41.11
2023-05-05T05:01:43.593Z,41.08
2023-05-05T05:02:43.684Z,41.05
2023-05-05T05:03:43.824Z,41.16
2023-05-05T05:04:43.681Z,41.17
2023-05-05T05:05:43.708Z,41.06
2023-05-05T05:06:43.730Z,40.95
2023-05-05T05:07:43.782Z,40.92
2023-05-05T05:08:43.814Z,40.89
2023-05-05T05:09:43.835Z,41.09
2023-05-05T05:10:43.896Z,41.22
2023-05-05T05:11:43.902Z,42.01
2023-05-05T05:12:43.905Z,41.34
2023-05-05T05:13:43.951Z,41.22
2023-05-05T05:14:43.888Z,42.21
2023-05-05T05:15:43.911Z,41.65
2023-05-05T05:16:43.991Z,41.54
2023-05-05T05:17:43.912Z,41.89
2023-05-05T05:18:43.910Z,41.77
2023-05-05T05:19:43.892Z,41.89
2023-05-05T05:20:43.916Z,42.37
2023-05-05T05:21:43.932Z,42.16
2023-05-05T05:22:43.945Z,41.97
2023-05-05T05:23:43.957Z,41.96
2023-05-05T05:24:44.011Z,41.78
2023-05-05T05:25:44.005Z,41.71
2023-05-05T05:26:44.015Z,41.11
2023-05-05T05:27:44.148Z,41.43
2023-05-05T05:28:44.578Z,41.12
2023-05-05T05:29:44.013Z,41.39
2023-05-05T05:30:44.016Z,41.21
2023-05-05T05:31:44.054Z,40.53
2023-05-05T05:32:44.049Z,41.18
2023-05-05T05:33:44.020Z,40.57
2023-05-05T05:34:44.025Z,40.55
2023-05-05T05:35:44.022Z,40.39
2023-05-05T05:36:44.037Z,40.34
2023-05-05T05:37:44.030Z,40.25
2023-05-05T05:38:44.037Z,40.25
2023-05-05T05:39:44.052Z,40.22
2023-05-05T05:40:44.073Z,40.12
2023-05-05T05:41:44.084Z,40.00
2023-05-05T05:42:44.092Z,39.88
2023-05-05T05:43:44.105Z,39.93
2023-05-05T05:44:44.122Z,40.01
2023-05-05T05:45:44.166Z,39.94
2023-05-05T05:46:44.118Z,39.93
2023-05-05T05:47:44.138Z,39.96
2023-05-05T05:48:44.081Z,39.99
2023-05-05T05:49:44.084Z,39.94
2023-05-05T05:50:44.051Z,39.94
2023-05-05T05:51:44.064Z,39.95
2023-05-05T05:52:44.037Z,39.98
2023-05-05T05:53:44.022Z,39.96
2023-05-05T05:54:44.027Z,39.99
2023-05-05T05:55:44.007Z,40.02
2023-05-05T05:56:44.028Z,40.10
2023-05-05T05:57:43.986Z,40.73
2023-05-05T05:58:43.968Z,40.37
2023-05-05T05:59:44.073Z,39.99
2023-05-05T06:00:43.931Z,39.53
2023-05-05T06:01:43.915Z,39.09
2023-05-05T06:02:43.980Z,39.12
2023-05-05T06:03:43.952Z,39.12
2023-05-05T06:04:43.924Z,39.13
2023-05-05T06:05:43.841Z,39.09
2023-05-05T06:06:43.832Z,39.30
2023-05-05T06:07:43.799Z,39.58
2023-05-05T06:08:43.781Z,39.88
2023-05-05T06:09:43.762Z,40.26
2023-05-05T06:10:43.770Z,40.39
2023-05-05T06:11:44.763Z,40.43
2023-05-05T06:12:43.746Z,40.45
2023-05-05T06:13:43.705Z,40.30
2023-05-05T06:14:43.667Z,40.42
2023-05-05T06:15:43.689Z,40.46
2023-05-05T06:16:43.632Z,40.53
2023-05-05T06:17:43.623Z,40.63
2023-05-05T06:18:43.578Z,40.62
2023-05-05T06:19:43.568Z,40.69
2023-05-05T06:20:43.626Z,40.61
2023-05-05T06:21:43.656Z,40.43
2023-05-05T06:22:43.721Z,40.43
2023-05-05T06:23:44.652Z,40.53
2023-05-05T06:24:43.613Z,40.56
2023-05-05T06:25:44.592Z,39.98
2023-05-05T06:26:43.610Z,40.28
2023-05-05T06:27:43.591Z,40.58
2023-05-05T06:28:43.584Z,40.31
2023-05-05T06:29:43.616Z,40.55
2023-05-05T06:30:43.547Z,40.57
2023-05-05T06:31:43.567Z,40.62
2023-05-05T06:32:43.544Z,40.68
2023-05-05T06:33:43.574Z,40.67
2023-05-05T06:34:43.487Z,40.72
2023-05-05T06:35:43.497Z,40.71
2023-05-05T06:36:43.521Z,40.75
2023-05-05T06:37:43.411Z,40.75
2023-05-05T06:38:43.398Z,40.76
2023-05-05T06:39:43.356Z,40.71
2023-05-05T06:40:43.345Z,40.74
2023-05-05T06:41:43.316Z,40.77
2023-05-05T06:42:43.364Z,40.88
2023-05-05T06:43:43.468Z,40.87
2023-05-05T06:44:43.422Z,40.86
2023-05-05T06:45:43.861Z,40.86
2023-05-05T06:46:43.614Z,40.88
2023-05-05T06:47:43.429Z,40.90
2023-05-05T06:48:44.387Z,40.90
2023-05-05T06:49:43.349Z,40.87
2023-05-05T06:50:43.369Z,40.90
2023-05-05T06:51:43.334Z,40.89
2023-05-05T06:52:43.336Z,40.90
2023-05-05T06:53:43.490Z,40.93
2023-05-05T06:54:43.341Z,40.97
2023-05-05T06:55:43.215Z,40.98
2023-05-05T06:56:43.210Z,40.95
2023-05-05T06:57:43.180Z,40.95
2023-05-05T06:58:43.164Z,40.94
2023-05-05T06:59:43.138Z,40.95
2023-05-05T07:00:43.185Z,40.94
2023-05-05T07:01:43.096Z,40.95
2023-05-05T07:02:44.145Z,40.97
2023-05-05T07:03:43.183Z,40.95
2023-05-05T07:04:43.043Z,40.94
2023-05-05T07:05:43.181Z,40.91
2023-05-05T07:06:43.030Z,40.96
2023-05-05T07:07:42.990Z,40.90
2023-05-05T07:08:42.965Z,40.93
2023-05-05T07:09:43.051Z,40.95
2023-05-05T07:10:42.925Z,40.96
2023-05-05T07:11:42.965Z,40.86
2023-05-05T07:12:43.031Z,40.97
2023-05-05T07:13:44.654Z,40.84
2023-05-05T07:14:43.059Z,40.90
2023-05-05T07:15:43.082Z,40.79
2023-05-05T07:16:43.159Z,40.86
2023-05-05T07:17:44.108Z,41.20
2023-05-05T07:18:43.102Z,41.35
2023-05-05T07:19:43.100Z,41.85
2023-05-05T07:20:47.703Z,41.90
2023-05-05T07:21:43.084Z,41.84
2023-05-05T07:22:43.060Z,41.82
2023-05-05T07:23:43.050Z,41.34
2023-05-05T07:24:43.034Z,41.43
2023-05-05T07:25:43.713Z,41.23
2023-05-05T07:26:42.989Z,41.15
2023-05-05T07:27:42.955Z,40.99
2023-05-05T07:28:42.969Z,41.20
2023-05-05T07:29:42.919Z,41.30
2023-05-05T07:30:44.565Z,41.12
2023-05-05T07:31:43.664Z,41.18
2023-05-05T07:32:42.867Z,41.25
2023-05-05T07:33:44.669Z,41.33
2023-05-05T07:34:42.804Z,41.27
2023-05-05T07:35:42.780Z,41.25
2023-05-05T07:36:42.764Z,41.24
2023-05-05T07:37:45.633Z,41.27
2023-05-05T07:38:43.164Z,41.32
2023-05-05T07:39:42.695Z,41.27
2023-05-05T07:40:42.670Z,41.30
2023-05-05T07:41:42.857Z,41.18
2023-05-05T07:42:42.607Z,41.20
2023-05-05T07:43:44.538Z,41.27
2023-05-05T07:44:42.571Z,41.34
2023-05-05T07:45:42.573Z,41.26
2023-05-05T07:46:42.517Z,41.24
2023-05-05T07:47:42.504Z,41.17
2023-05-05T07:48:42.487Z,41.19
2023-05-05T07:49:42.473Z,41.17
2023-05-05T07:50:44.157Z,41.21
2023-05-05T07:51:42.410Z,41.18
2023-05-05T07:52:46.795Z,41.14
2023-05-05T07:53:43.351Z,41.23
2023-05-05T07:54:43.143Z,41.23
2023-05-05T07:55:42.310Z,41.23
2023-05-05T07:56:44.175Z,41.25
2023-05-05T07:57:42.731Z,41.21
2023-05-05T07:58:42.259Z,41.18
2023-05-05T07:59:42.238Z,41.16
2023-05-05T08:00:45.064Z,41.20
2023-05-05T08:01:42.187Z,41.23
2023-05-05T08:02:44.218Z,41.24
2023-05-05T08:03:42.754Z,41.27
2023-05-05T08:04:42.269Z,41.24
2023-05-05T08:05:42.749Z,41.23
2023-05-05T08:06:43.197Z,41.27
2023-05-05T08:07:42.208Z,41.31
2023-05-05T08:08:49.159Z,41.29
2023-05-05T08:09:42.358Z,41.14
2023-05-05T08:10:42.187Z,41.17
2023-05-05T08:11:42.184Z,41.19
2023-05-05T08:12:42.219Z,41.69
2023-05-05T08:13:42.239Z,41.81
2023-05-05T08:14:42.160Z,41.52
2023-05-05T08:15:42.197Z,42.01
2023-05-05T08:16:42.131Z,42.21
2023-05-05T08:17:42.218Z,42.20
2023-05-05T08:18:46.656Z,42.01
2023-05-05T08:19:42.076Z,41.81
2023-05-05T08:20:42.051Z,41.41
2023-05-05T08:21:42.651Z,40.73
2023-05-05T08:22:42.096Z,40.52
2023-05-05T08:23:42.000Z,39.57
2023-05-05T08:24:41.988Z,39.41
2023-05-05T08:25:42.003Z,39.04
2023-05-05T08:26:41.936Z,39.22
2023-05-05T08:27:41.892Z,39.44
2023-05-05T08:28:41.877Z,39.49
2023-05-05T08:29:41.908Z,40.09
2023-05-05T08:30:42.013Z,40.14
2023-05-05T08:31:42.047Z,40.21
2023-05-05T08:32:41.864Z,40.25
2023-05-05T08:33:41.912Z,40.31
2023-05-05T08:34:41.765Z,40.16
2023-05-05T08:35:41.760Z,40.11
2023-05-05T08:36:41.799Z,40.20
2023-05-05T08:37:41.838Z,40.29
2023-05-05T08:38:41.891Z,40.38
2023-05-05T08:39:42.858Z,40.33
2023-05-05T08:40:41.855Z,40.09
2023-05-05T08:41:41.819Z,40.04
2023-05-05T08:42:42.207Z,40.08
2023-05-05T08:43:41.784Z,40.19
2023-05-05T08:44:41.755Z,40.24
2023-05-05T08:45:41.817Z,40.27
2023-05-05T08:46:41.729Z,40.45
2023-05-05T08:47:41.773Z,40.49
2023-05-05T08:48:41.680Z,40.57
2023-05-05T08:49:41.670Z,40.56
2023-05-05T08:50:41.641Z,40.61
2023-05-05T08:51:41.622Z,40.64
2023-05-05T08:52:41.716Z,40.82
2023-05-05T08:53:41.581Z,40.89
2023-05-05T08:54:41.573Z,40.91
2023-05-05T08:55:41.555Z,40.96
2023-05-05T08:56:43.211Z,40.98
2023-05-05T08:57:41.515Z,41.04
2023-05-05T08:58:41.509Z,41.01
2023-05-05T08:59:41.461Z,40.93
2023-05-05T09:00:41.513Z,40.91
2023-05-05T09:01:41.562Z,41.00
2023-05-05T09:02:41.563Z,41.05
2023-05-05T09:03:41.449Z,41.10
2023-05-05T09:04:41.494Z,41.08
2023-05-05T09:05:41.519Z,40.98
2023-05-05T09:06:41.580Z,40.98
2023-05-05T09:07:42.545Z,40.98
2023-05-05T09:08:41.533Z,40.96
2023-05-05T09:09:41.500Z,40.95
2023-05-05T09:10:41.485Z,40.92
2023-05-05T09:11:41.469Z,40.90
2023-05-05T09:12:41.499Z,40.89
2023-05-05T09:13:41.419Z,41.00
2023-05-05T09:14:41.463Z,41.19
2023-05-05T09:15:41.704Z,41.33
2023-05-05T09:16:41.474Z,41.11
2023-05-05T09:17:41.427Z,40.72
2023-05-05T09:18:41.402Z,41.02
2023-05-05T09:19:41.401Z,40.40
2023-05-05T09:20:41.393Z,40.38
2023-05-05T09:21:42.103Z,40.25
2023-05-05T09:22:43.221Z,40.47
2023-05-05T09:23:41.353Z,40.76
2023-05-05T09:24:41.313Z,40.78
2023-05-05T09:25:41.295Z,40.75
2023-05-05T09:26:41.330Z,40.80
2023-05-05T09:27:42.105Z,40.86
2023-05-05T09:28:42.109Z,40.86
2023-05-05T09:29:41.411Z,40.95
2023-05-05T09:30:41.510Z,40.91
2023-05-05T09:31:41.489Z,40.91
2023-05-05T09:32:41.551Z,41.07
2023-05-05T09:33:41.643Z,41.17
2023-05-05T09:34:41.602Z,41.24
2023-05-05T09:35:41.629Z,40.96
2023-05-05T09:36:41.679Z,41.16
2023-05-05T09:37:41.712Z,41.01
2023-05-05T09:38:41.753Z,41.01
2023-05-05T09:39:41.801Z,41.07
2023-05-05T09:40:41.941Z,41.19
2023-05-05T09:41:41.900Z,41.08
2023-05-05T09:42:41.925Z,41.12
2023-05-05T09:43:42.086Z,41.17
2023-05-05T09:44:42.025Z,41.28
2023-05-05T09:45:46.725Z,41.22
2023-05-05T09:46:42.688Z,41.18
2023-05-05T09:47:42.064Z,41.17
2023-05-05T09:48:42.015Z,41.20
2023-05-05T09:49:42.625Z,41.27
2023-05-05T09:50:42.704Z,41.23
2023-05-05T09:51:42.627Z,41.30
2023-05-05T09:52:41.995Z,41.36
2023-05-05T09:53:41.979Z,41.39
2023-05-05T09:54:41.924Z,41.40
2023-05-05T09:55:42.639Z,41.38
2023-05-05T09:56:41.915Z,41.40
2023-05-05T09:57:41.956Z,41.60
2023-05-05T09:58:42.078Z,41.36
2023-05-05T09:59:42.168Z,41.34
2023-05-05T10:00:42.094Z,41.30
2023-05-05T10:01:42.220Z,41.27
2023-05-05T10:02:42.221Z,41.32
2023-05-05T10:03:42.237Z,41.39
2023-05-05T10:04:42.303Z,41.48
2023-05-05T10:05:42.454Z,41.46
2023-05-05T10:06:42.349Z,41.57
2023-05-05T10:07:42.400Z,41.53
2023-05-05T10:08:42.434Z,41.42
2023-05-05T10:09:42.474Z,41.53
2023-05-05T10:10:42.525Z,41.61
2023-05-05T10:11:42.574Z,41.75
2023-05-05T10:12:42.683Z,41.64
2023-05-05T10:13:42.642Z,41.55
2023-05-05T10:14:42.721Z,41.44
2023-05-05T10:15:42.804Z,41.50
2023-05-05T10:16:42.876Z,41.61
2023-05-05T10:17:53.940Z,41.77
2023-05-05T10:18:43.886Z,42.05
2023-05-05T10:19:42.898Z,42.08
2023-05-05T10:20:42.770Z,42.43
2023-05-05T10:21:42.857Z,41.55
2023-05-05T10:22:43.714Z,41.48
2023-05-05T10:23:42.707Z,41.61
2023-05-05T10:24:42.695Z,41.54
2023-05-05T10:25:42.655Z,41.44
2023-05-05T10:26:42.642Z,41.47
2023-05-05T10:27:42.619Z,41.77
2023-05-05T10:28:42.620Z,41.53
2023-05-05T10:29:43.225Z,41.61
2023-05-05T10:30:42.699Z,41.88
2023-05-05T10:31:42.784Z,42.07
2023-05-05T10:33:42.804Z,41.88
2023-05-05T10:34:42.729Z,41.85
2023-05-05T10:35:42.692Z,41.83
2023-05-05T10:36:42.667Z,42.02
2023-05-05T10:37:42.764Z,41.87
2023-05-05T10:38:42.656Z,41.89
2023-05-05T10:39:42.613Z,41.92
2023-05-05T10:40:42.584Z,42.14
2023-05-05T10:41:42.619Z,42.29
2023-05-05T10:42:42.554Z,42.16
2023-05-05T10:43:42.556Z,42.18
2023-05-05T10:44:43.218Z,42.22
2023-05-05T10:45:42.548Z,42.25
2023-05-05T10:46:42.590Z,42.34
2023-05-05T10:47:42.515Z,42.39
2023-05-05T10:48:42.483Z,42.47
2023-05-05T10:49:42.404Z,42.59
2023-05-05T10:50:42.388Z,42.58
2023-05-05T10:51:42.365Z,42.41
2023-05-05T10:52:42.334Z,42.44
2023-05-05T10:53:42.973Z,42.43
2023-05-05T10:54:42.306Z,42.33
2023-05-05T10:55:42.265Z,42.39
2023-05-05T10:56:42.246Z,42.45
2023-05-05T10:57:42.236Z,43.16
2023-05-05T10:58:58.245Z,43.42
2023-05-05T10:59:43.242Z,43.18
2023-05-05T11:00:42.267Z,43.16
2023-05-05T11:01:42.284Z,42.77
2023-05-05T11:02:42.327Z,42.65
2023-05-05T11:03:42.419Z,42.76
2023-05-05T11:04:42.382Z,42.33
2023-05-05T11:05:42.438Z,42.35
2023-05-05T11:06:42.469Z,42.23
2023-05-05T11:07:42.579Z,42.38
2023-05-05T11:08:42.530Z,42.45
2023-05-05T11:09:42.625Z,42.63
2023-05-05T11:10:42.597Z,42.51
2023-05-05T11:11:42.639Z,42.59
2023-05-05T11:12:42.683Z,42.61
2023-05-05T11:13:42.725Z,42.64
2023-05-05T11:14:42.733Z,42.66
2023-05-05T11:15:42.760Z,42.58
2023-05-05T11:16:42.799Z,42.61
2023-05-05T11:17:42.859Z,42.55
2023-05-05T11:18:42.873Z,42.57
2023-05-05T11:19:42.895Z,42.57
2023-05-05T11:20:42.915Z,42.53
2023-05-05T11:21:42.958Z,42.55
2023-05-05T11:22:43.005Z,42.54
2023-05-05T11:23:43.032Z,42.64
2023-05-05T11:24:43.056Z,42.66
2023-05-05T11:25:43.152Z,42.60
2023-05-05T11:26:43.144Z,42.86
2023-05-05T11:27:43.156Z,42.85
2023-05-05T11:28:43.221Z,42.72
2023-05-05T11:29:43.230Z,42.68
2023-05-05T11:30:44.292Z,42.88
2023-05-05T11:31:43.286Z,42.95
2023-05-05T11:32:43.343Z,42.94
2023-05-05T11:33:43.352Z,42.85
2023-05-05T11:34:43.384Z,42.84
2023-05-05T11:35:43.416Z,42.82
2023-05-05T11:36:43.492Z,42.71
2023-05-05T11:37:43.480Z,42.55
2023-05-05T11:38:43.515Z,42.70
2023-05-05T11:39:44.256Z,42.89
2023-05-05T11:40:43.572Z,42.94
2023-05-05T11:41:43.656Z,42.79
2023-05-05T11:42:43.629Z,42.79
2023-05-05T11:43:43.654Z,42.83
2023-05-05T11:44:43.683Z,42.87
2023-05-05T11:45:43.711Z,42.81
2023-05-05T11:46:43.787Z,42.85
2023-05-05T11:47:43.798Z,42.87
2023-05-05T11:48:43.839Z,42.89
2023-05-05T11:49:43.856Z,42.92
2023-05-05T11:50:43.889Z,42.88
2023-05-05T11:51:43.919Z,43.14
2023-05-05T11:52:43.983Z,43.09
2023-05-05T11:53:43.991Z,42.94
2023-05-05T11:54:44.056Z,42.92
2023-05-05T11:55:44.053Z,43.03
2023-05-05T11:56:44.073Z,42.89
2023-05-05T11:57:44.180Z,42.90
2023-05-05T11:58:44.145Z,42.88
2023-05-05T11:59:44.173Z,42.87
2023-05-05T12:00:44.214Z,42.90
2023-05-05T12:01:44.233Z,42.89
2023-05-05T12:02:44.331Z,43.04
2023-05-05T12:03:44.488Z,43.03
2023-05-05T12:04:44.387Z,43.01
2023-05-05T12:05:44.380Z,43.04
2023-05-05T12:06:44.402Z,43.18
2023-05-05T12:07:44.432Z,43.12
2023-05-05T12:08:44.467Z,42.81
2023-05-05T12:09:44.534Z,42.70
2023-05-05T12:10:44.538Z,42.73
2023-05-05T12:11:44.568Z,42.68
2023-05-05T12:12:47.534Z,42.42
2023-05-05T12:13:44.576Z,42.33
2023-05-05T12:14:44.748Z,42.40
2023-05-05T12:15:44.533Z,42.49
2023-05-05T12:16:44.694Z,42.41
2023-05-05T12:17:44.469Z,42.13
2023-05-05T12:18:44.422Z,42.16
2023-05-05T12:19:44.591Z,42.02
2023-05-05T12:20:44.376Z,42.02
2023-05-05T12:21:44.334Z,42.69
2023-05-05T12:22:44.293Z,42.61
2023-05-05T12:23:44.275Z,42.61
2023-05-05T12:24:44.262Z,42.67
2023-05-05T12:25:44.194Z,42.61
2023-05-05T12:26:44.164Z,42.65
2023-05-05T12:27:44.133Z,42.60
2023-05-05T12:28:44.160Z,42.53
2023-05-05T12:29:44.065Z,42.43
2023-05-05T12:30:44.065Z,42.35
2023-05-05T12:31:44.017Z,42.41
2023-05-05T12:32:44.132Z,42.30
2023-05-05T12:33:43.924Z,41.65
2023-05-05T12:34:43.898Z,41.94
2023-05-05T12:35:43.860Z,41.92
2023-05-05T12:36:43.823Z,41.96
2023-05-05T12:37:43.800Z,42.00
2023-05-05T12:38:43.768Z,42.02
2023-05-05T12:39:43.722Z,41.97
2023-05-05T12:40:43.716Z,41.90
2023-05-05T12:41:43.658Z,41.86
2023-05-05T12:42:45.788Z,41.33
2023-05-05T12:43:43.598Z,40.90
2023-05-05T12:44:43.551Z,40.83
2023-05-05T12:45:43.540Z,40.51
2023-05-05T12:46:43.481Z,41.14
2023-05-05T12:47:43.481Z,41.12
2023-05-05T12:48:45.608Z,40.83
2023-05-05T12:49:43.387Z,40.80
2023-05-05T12:50:43.340Z,40.77
2023-05-05T12:51:43.296Z,40.65
2023-05-05T12:52:43.275Z,40.84
2023-05-05T12:53:43.230Z,40.93